Time;durP1;ratioP1;P1;durP2;ratioP2;P2;SDS_P1;SDS_P2;PMS_P1;PMS_P2;Temp;Humidity;BMP_temperature;BMP_pressure;BME280_temperature;BME280_humidity;BME280_pressure;Samples;Min_cycle;Max_cycle;Signal;HPM_P1;HPM_P2
2023/12/04 00:02:11;;;;;;;1.45;1.35;;;-2.00;99.90;;;;;;5014148;28;20021;-75
2023/12/04 00:04:37;;;;;;;1.15;0.90;;;-2.00;99.90;;;;;;5031807;28;20033;-75
2023/12/04 00:07:03;;;;;;;1.33;1.23;;;-2.00;99.90;;;;;;5032279;28;20033;-75
2023/12/04 00:09:32;;;;;;;1.27;1.17;;;-2.00;99.90;;;;;;5014510;28;20535;-76
2023/12/04 00:11:58;;;;;;;1.77;1.30;;;-2.10;99.90;;;;;;5010111;28;20029;-75
2023/12/04 00:14:23;;;;;;;6.38;4.43;;;-2.10;99.90;;;;;;5029462;28;20044;-75
2023/12/04 00:16:49;;;;;;;2.95;2.75;;;-2.10;99.90;;;;;;5032576;28;20033;-74
2023/12/04 00:19:15;;;;;;;1.90;1.80;;;-2.20;99.90;;;;;;5030223;28;20042;-75
2023/12/04 00:21:41;;;;;;;1.70;1.45;;;-2.20;99.90;;;;;;5040394;28;20036;-75
2023/12/04 00:24:07;;;;;;;1.85;1.75;;;-2.10;99.90;;;;;;5018963;28;20030;-75
2023/12/04 00:26:35;;;;;;;9.13;1.92;;;-2.10;99.90;;;;;;5013541;28;20780;-75
2023/12/04 00:29:01;;;;;;;1.60;1.50;;;-2.10;99.90;;;;;;5018877;28;20033;-75
2023/12/04 00:31:28;;;;;;;1.20;1.17;;;-2.10;99.90;;;;;;5023351;28;20029;-75
2023/12/04 00:33:54;;;;;;;7.82;4.32;;;-2.20;99.90;;;;;;5014253;28;20131;-75
2023/12/04 00:36:20;;;;;;;1.48;1.38;;;-2.30;99.90;;;;;;5029639;28;20501;-75
2023/12/04 00:38:45;;;;;;;2.78;2.47;;;-2.20;99.90;;;;;;5036631;28;20022;-76
2023/12/04 00:41:11;;;;;;;2.25;1.38;;;-2.20;99.90;;;;;;5032070;28;20025;-76
2023/12/04 00:43:38;;;;;;;0.80;0.80;;;-2.20;99.90;;;;;;5046111;28;20501;-75
2023/12/04 00:46:04;;;;;;;1.27;1.23;;;-2.30;99.90;;;;;;5034559;28;20034;-74
2023/12/04 00:48:29;;;;;;;1.30;1.20;;;-2.30;99.90;;;;;;5028307;28;20036;-74
2023/12/04 00:50:55;;;;;;;2.85;2.47;;;-2.30;99.90;;;;;;5021398;28;20097;-75
2023/12/04 00:53:21;;;;;;;4.55;3.42;;;-2.30;99.90;;;;;;5022372;28;20041;-76
2023/12/04 00:55:46;;;;;;;4.65;2.00;;;-2.30;99.90;;;;;;5027399;28;20120;-75
2023/12/04 00:58:12;;;;;;;1.08;1.05;;;-2.30;99.90;;;;;;5030046;28;20497;-76
2023/12/04 01:00:38;;;;;;;7.65;2.72;;;-2.30;99.90;;;;;;5030755;28;20029;-76
2023/12/04 01:03:07;;;;;;;2.97;2.50;;;-2.40;99.90;;;;;;5006782;28;20088;-76
2023/12/04 01:05:32;;;;;;;2.55;2.30;;;-2.40;99.90;;;;;;5029089;28;20033;-75
2023/12/04 01:07:58;;;;;;;1.85;1.75;;;-2.40;99.90;;;;;;5005840;28;20482;-75
2023/12/04 01:10:24;;;;;;;1.10;1.02;;;-2.40;99.90;;;;;;5025972;28;20030;-76
2023/12/04 01:12:50;;;;;;;5.88;2.40;;;-2.40;99.90;;;;;;4999603;28;20029;-76
2023/12/04 01:15:15;;;;;;;2.20;1.55;;;-2.40;99.90;;;;;;5030676;28;20033;-76
2023/12/04 01:17:41;;;;;;;5.88;2.88;;;-2.40;99.90;;;;;;5012092;28;20386;-76
2023/12/04 01:20:10;;;;;;;5.60;3.00;;;-2.40;99.90;;;;;;5029314;28;20025;-77
2023/12/04 01:22:36;;;;;;;0.82;0.82;;;-2.40;99.90;;;;;;5037433;28;20091;-75
2023/12/04 01:25:03;;;;;;;2.10;1.90;;;-2.40;99.90;;;;;;5029358;28;20087;-75
2023/12/04 01:27:29;;;;;;;1.60;1.20;;;-2.50;99.90;;;;;;5010843;28;20072;-75
2023/12/04 01:29:54;;;;;;;5.90;2.72;;;-2.40;99.90;;;;;;5041152;28;20447;-75
2023/12/04 01:32:20;;;;;;;2.97;1.77;;;-2.40;99.90;;;;;;5028982;28;20072;-75
2023/12/04 01:34:46;;;;;;;3.10;2.35;;;-2.50;99.90;;;;;;5013451;28;20026;-76
2023/12/04 01:37:11;;;;;;;0.57;0.55;;;-2.50;99.90;;;;;;5022311;28;20120;-76
2023/12/04 01:39:37;;;;;;;1.10;1.08;;;-2.60;99.90;;;;;;5032221;28;20071;-76
2023/12/04 01:42:03;;;;;;;1.63;1.50;;;-2.60;99.90;;;;;;5038419;28;20036;-76
2023/12/04 01:44:29;;;;;;;1.85;1.70;;;-2.60;99.90;;;;;;5036164;28;20029;-74
2023/12/04 01:46:56;;;;;;;6.90;3.08;;;-2.60;99.90;;;;;;5034757;28;20049;-75
2023/12/04 01:49:21;;;;;;;6.97;4.88;;;-2.60;99.90;;;;;;5033848;28;20029;-75
2023/12/04 01:51:48;;;;;;;2.65;1.17;;;-2.60;99.90;;;;;;5033283;28;20025;-75
2023/12/04 01:54:15;;;;;;;2.88;2.25;;;-2.60;99.90;;;;;;5013217;28;20068;-75
2023/12/04 01:56:41;;;;;;;6.32;2.88;;;-2.60;99.90;;;;;;5028513;28;20034;-76
2023/12/04 01:59:06;;;;;;;1.63;1.52;;;-2.60;99.90;;;;;;5012192;28;20033;-75
2023/12/04 02:01:33;;;;;;;3.70;3.30;;;-2.60;99.90;;;;;;5021512;28;20547;-75
2023/12/04 02:04:01;;;;;;;15.30;2.80;;;-2.60;99.90;;;;;;5029204;28;20074;-75
2023/12/04 02:06:27;;;;;;;5.80;2.40;;;-2.50;99.90;;;;;;5003511;28;20026;-76
2023/12/04 02:08:53;;;;;;;3.10;2.00;;;-2.60;99.90;;;;;;5027932;28;20029;-75
2023/12/04 02:11:18;;;;;;;2.72;2.25;;;-2.60;99.90;;;;;;5027055;28;20034;-76
2023/12/04 02:13:44;;;;;;;2.22;1.40;;;-2.60;99.90;;;;;;5028646;28;20056;-75
2023/12/04 02:16:13;;;;;;;2.03;1.85;;;-2.60;99.90;;;;;;5028544;28;20037;-74
2023/12/04 02:18:40;;;;;;;2.75;2.33;;;-2.60;99.90;;;;;;5012205;28;20521;-75
2023/12/04 02:21:06;;;;;;;2.05;1.42;;;-2.50;99.90;;;;;;5020714;28;20033;-75
2023/12/04 02:23:32;;;;;;;2.45;1.15;;;-2.50;99.90;;;;;;5020681;28;20379;-75
2023/12/04 02:26:05;;;;;;;3.03;2.50;;;-2.50;99.90;;;;;;5028530;28;20044;-75
2023/12/04 02:28:34;;;;;;;1.25;1.02;;;-2.50;99.90;;;;;;5020703;28;20095;-76
2023/12/04 02:31:03;;;;;;;1.55;1.45;;;-2.50;99.90;;;;;;5028524;28;20508;-76
2023/12/04 02:33:29;;;;;;;7.45;3.58;;;-2.50;99.90;;;;;;5011742;28;20077;-76
2023/12/04 02:35:57;;;;;;;1.85;1.70;;;-2.60;99.90;;;;;;5028464;28;20076;-76
2023/12/04 02:38:23;;;;;;;0.75;0.75;;;-2.50;99.90;;;;;;5028084;28;20029;-76
2023/12/04 02:40:50;;;;;;;1.45;1.27;;;-2.50;99.90;;;;;;5029474;28;20025;-76
2023/12/04 02:43:15;;;;;;;2.80;2.53;;;-2.60;99.90;;;;;;5008305;28;20025;-76
2023/12/04 02:45:41;;;;;;;3.20;2.22;;;-2.50;99.90;;;;;;5032539;28;20037;-76
2023/12/04 02:48:07;;;;;;;2.50;2.30;;;-2.60;99.90;;;;;;5015032;28;20444;-75
2023/12/04 02:50:33;;;;;;;2.35;1.77;;;-2.60;99.90;;;;;;5023898;28;20064;-75
2023/12/04 02:52:59;;;;;;;1.65;1.23;;;-2.50;99.90;;;;;;5024392;28;20512;-76
2023/12/04 02:55:24;;;;;;;3.58;2.08;;;-2.60;99.90;;;;;;5033377;28;20087;-76
2023/12/04 02:57:50;;;;;;;1.30;1.20;;;-2.70;99.90;;;;;;5031648;28;20063;-75
2023/12/04 03:00:16;;;;;;;0.85;0.85;;;-2.70;99.90;;;;;;5027964;28;20520;-75
2023/12/04 03:02:42;;;;;;;3.22;2.92;;;-2.70;99.90;;;;;;5032024;28;20425;-75
2023/12/04 03:05:08;;;;;;;3.05;2.05;;;-2.70;99.90;;;;;;5031142;28;20022;-75
2023/12/04 03:07:34;;;;;;;1.38;1.27;;;-2.70;99.90;;;;;;5015897;28;20394;-75
2023/12/04 03:10:00;;;;;;;2.35;1.98;;;-2.70;99.90;;;;;;5028992;28;20030;-77
2023/12/04 03:12:25;;;;;;;3.97;3.65;;;-2.70;99.90;;;;;;5031249;28;20033;-75
2023/12/04 03:14:51;;;;;;;0.85;0.85;;;-2.60;99.90;;;;;;5033131;28;20033;-75
2023/12/04 03:17:17;;;;;;;4.00;1.83;;;-2.60;99.90;;;;;;5024278;28;20116;-76
2023/12/04 03:19:42;;;;;;;5.88;2.67;;;-2.60;99.90;;;;;;5015343;28;20021;-75
2023/12/04 03:22:08;;;;;;;1.77;1.67;;;-2.70;99.90;;;;;;5031013;28;20479;-75
2023/12/04 03:24:34;;;;;;;1.90;1.50;;;-2.70;99.90;;;;;;5031740;28;20018;-75
2023/12/04 03:27:00;;;;;;;1.58;1.48;;;-2.70;99.90;;;;;;5027636;28;20080;-75
2023/12/04 03:29:25;;;;;;;3.35;2.35;;;-2.70;99.90;;;;;;5029647;28;20033;-76
2023/12/04 03:31:51;;;;;;;2.25;1.27;;;-2.70;99.90;;;;;;5031097;28;20022;-76
2023/12/04 03:34:17;;;;;;;2.80;1.33;;;-2.70;99.90;;;;;;5031448;28;20389;-76
2023/12/04 03:36:42;;;;;;;0.93;0.70;;;-2.70;99.90;;;;;;5031010;28;20549;-76
2023/12/04 03:39:08;;;;;;;1.63;1.52;;;-2.70;99.90;;;;;;5031250;28;20029;-76
2023/12/04 03:41:34;;;;;;;1.75;1.42;;;-2.70;99.90;;;;;;5031255;28;20505;-76
2023/12/04 03:44:00;;;;;;;2.08;1.80;;;-2.60;99.90;;;;;;5032806;28;20104;-77
2023/12/04 03:46:25;;;;;;;1.45;1.27;;;-2.70;99.90;;;;;;5031173;28;20017;-74
2023/12/04 03:48:51;;;;;;;1.00;0.93;;;-2.60;99.90;;;;;;5020741;28;20029;-74
2023/12/04 03:51:17;;;;;;;3.20;1.95;;;-2.60;99.90;;;;;;5022292;28;20029;-75
2023/12/04 03:53:43;;;;;;;5.70;2.38;;;-2.50;99.90;;;;;;5023774;28;20030;-76
2023/12/04 03:56:10;;;;;;;2.00;1.20;;;-2.50;99.90;;;;;;5030952;28;20033;-76
2023/12/04 03:58:37;;;;;;;3.10;1.63;;;-2.60;99.90;;;;;;5005645;28;20067;-75
2023/12/04 04:01:03;;;;;;;3.67;1.75;;;-2.60;99.90;;;;;;5025707;28;20025;-76
2023/12/04 04:03:29;;;;;;;1.05;0.95;;;-2.60;99.90;;;;;;5029154;28;20043;-75
2023/12/04 04:05:54;;;;;;;2.17;1.95;;;-2.50;99.90;;;;;;5030581;28;20045;-76
2023/12/04 04:08:20;;;;;;;3.63;1.85;;;-2.50;99.90;;;;;;5031278;28;20390;-76
2023/12/04 04:10:46;;;;;;;1.23;0.98;;;-2.50;99.90;;;;;;5030777;28;20109;-75
2023/12/04 04:13:12;;;;;;;1.92;1.77;;;-2.50;99.90;;;;;;5030276;28;20535;-76
2023/12/04 04:15:38;;;;;;;2.97;2.28;;;-2.60;99.90;;;;;;5030654;28;20264;-75
2023/12/04 04:18:03;;;;;;;2.63;1.20;;;-2.60;99.90;;;;;;5030394;28;20025;-75
2023/12/04 04:20:29;;;;;;;2.47;2.28;;;-2.60;99.90;;;;;;5030302;28;20029;-76
2023/12/04 04:22:55;;;;;;;2.53;1.88;;;-2.60;99.90;;;;;;5031270;28;20029;-76
2023/12/04 04:25:23;;;;;;;1.92;1.40;;;-2.50;99.90;;;;;;5031842;28;20063;-74
2023/12/04 04:27:48;;;;;;;3.08;2.08;;;-2.50;99.90;;;;;;5009726;28;20053;-75
2023/12/04 04:30:14;;;;;;;3.33;1.73;;;-2.50;99.90;;;;;;5042544;28;20029;-77
2023/12/04 04:32:40;;;;;;;3.42;1.90;;;-2.50;99.90;;;;;;5030013;28;20033;-75
2023/12/04 04:35:07;;;;;;;7.40;3.00;;;-2.50;99.90;;;;;;5030012;28;20043;-75
2023/12/04 04:37:33;;;;;;;4.13;2.05;;;-2.50;99.90;;;;;;5027243;28;20049;-75
2023/12/04 04:39:58;;;;;;;2.47;1.38;;;-2.50;99.90;;;;;;5030825;28;20033;-74
2023/12/04 04:42:24;;;;;;;4.18;3.08;;;-2.40;99.90;;;;;;5011340;28;20024;-73
2023/12/04 04:44:50;;;;;;;2.65;1.55;;;-2.30;99.90;;;;;;5030578;28;20033;-75
2023/12/04 04:47:16;;;;;;;2.85;2.08;;;-2.30;99.90;;;;;;5030814;28;20509;-76
2023/12/04 04:49:42;;;;;;;4.38;1.40;;;-2.30;99.90;;;;;;5029193;28;20036;-75
2023/12/04 04:52:07;;;;;;;1.83;1.35;;;-2.30;99.90;;;;;;5029407;28;20029;-76
2023/12/04 04:54:33;;;;;;;6.18;3.88;;;-2.30;99.90;;;;;;5029369;28;20038;-75
2023/12/04 04:56:59;;;;;;;4.63;3.05;;;-2.30;99.90;;;;;;5024928;28;20030;-75
2023/12/04 04:59:25;;;;;;;2.17;1.98;;;-2.40;99.90;;;;;;5010550;28;20492;-75
2023/12/04 05:01:51;;;;;;;3.88;3.55;;;-2.40;99.90;;;;;;5028814;28;20037;-75
2023/12/04 05:04:16;;;;;;;13.40;3.55;;;-2.40;99.90;;;;;;5028441;28;20083;-75
2023/12/04 05:06:42;;;;;;;4.97;2.38;;;-2.40;99.90;;;;;;5027289;28;20041;-76
2023/12/04 05:09:08;;;;;;;26.40;2.55;;;-2.40;99.90;;;;;;5010419;28;20117;-75
2023/12/04 05:11:34;;;;;;;3.88;2.85;;;-2.40;99.90;;;;;;5026782;28;20401;-74
2023/12/04 05:14:00;;;;;;;2.17;1.83;;;-2.40;99.90;;;;;;5011230;28;20411;-75
2023/12/04 05:16:25;;;;;;;11.80;4.28;;;-2.40;99.90;;;;;;5028486;28;20029;-74
2023/12/04 05:18:51;;;;;;;11.10;2.75;;;-2.40;99.90;;;;;;5027297;28;20473;-75
2023/12/04 05:21:17;;;;;;;1.77;1.45;;;-2.50;99.90;;;;;;5028285;28;20029;-75
2023/12/04 05:23:43;;;;;;;2.75;1.77;;;-2.50;99.90;;;;;;5028901;28;20056;-74
2023/12/04 05:26:08;;;;;;;3.03;2.60;;;-2.60;99.90;;;;;;5027361;28;20033;-75
2023/12/04 05:28:34;;;;;;;1.60;1.45;;;-2.60;99.90;;;;;;5028267;28;20794;-75
2023/12/04 05:31:00;;;;;;;13.63;5.10;;;-2.70;99.90;;;;;;5010780;28;20034;-75
2023/12/04 05:33:26;;;;;;;15.23;2.90;;;-2.70;99.90;;;;;;5026807;28;20038;-74
2023/12/04 05:35:52;;;;;;;4.13;3.08;;;-2.70;99.90;;;;;;5025856;28;20033;-73
2023/12/04 05:38:18;;;;;;;7.38;4.57;;;-2.70;99.90;;;;;;5042383;28;20051;-72
2023/12/04 05:40:44;;;;;;;3.42;3.20;;;-2.70;99.90;;;;;;5028407;28;20029;-76
2023/12/04 05:43:10;;;;;;;7.50;3.38;;;-2.60;99.90;;;;;;5028743;28;20530;-76
2023/12/04 05:45:36;;;;;;;5.63;2.88;;;-2.70;99.90;;;;;;5025836;28;20551;-75
2023/12/04 05:48:02;;;;;;;3.97;2.60;;;-2.60;99.90;;;;;;5007897;28;20137;-75
2023/12/04 05:50:27;;;;;;;5.68;4.20;;;-2.70;99.90;;;;;;5010282;28;20034;-76
2023/12/04 05:52:53;;;;;;;9.45;2.30;;;-2.70;99.90;;;;;;5027213;28;21360;-76
2023/12/04 05:55:20;;;;;;;2.30;2.05;;;-2.60;99.90;;;;;;5026013;28;20465;-76
2023/12/04 05:57:46;;;;;;;9.57;4.90;;;-2.60;99.90;;;;;;5025586;28;20028;-75
2023/12/04 06:00:12;;;;;;;4.68;4.22;;;-2.60;99.90;;;;;;5042263;28;20018;-76
2023/12/04 06:02:47;;;;;;;4.93;2.92;;;-2.60;99.90;;;;;;5029333;28;20040;-76
2023/12/04 06:05:13;;;;;;;2.92;2.72;;;-2.60;99.90;;;;;;5026226;28;20029;-74
2023/12/04 06:07:39;;;;;;;6.22;4.68;;;-2.60;99.90;;;;;;5028606;28;20083;-74
2023/12/04 06:10:05;;;;;;;4.75;4.10;;;-2.60;99.90;;;;;;5027202;28;20128;-75
2023/12/04 06:12:32;;;;;;;3.33;2.90;;;-2.50;99.90;;;;;;5027598;28;20078;-75
2023/12/04 06:15:01;;;;;;;5.30;3.55;;;-2.60;99.90;;;;;;5025507;28;20038;-75
2023/12/04 06:17:27;;;;;;;5.75;4.95;;;-2.50;99.90;;;;;;5029309;28;20029;-74
2023/12/04 06:19:53;;;;;;;2.22;1.95;;;-2.50;99.90;;;;;;5033134;28;20014;-74
2023/12/04 06:22:21;;;;;;;5.22;3.78;;;-2.50;99.90;;;;;;5045738;28;20033;-75
2023/12/04 06:24:48;;;;;;;2.88;2.60;;;-2.50;99.90;;;;;;5045905;28;20155;-74
2023/12/04 06:27:19;;;;;;;3.25;3.05;;;-2.50;99.90;;;;;;5030864;28;20100;-75
2023/12/04 06:29:45;;;;;;;7.30;2.80;;;-2.40;99.90;;;;;;5029075;28;20856;-74
2023/12/04 06:32:12;;;;;;;3.17;2.92;;;-2.40;99.90;;;;;;5029953;28;20164;-74
2023/12/04 06:34:38;;;;;;;2.22;2.03;;;-2.40;99.90;;;;;;5031571;28;20520;-75
2023/12/04 06:37:10;;;;;;;5.80;2.58;;;-2.50;99.90;;;;;;5047307;28;20507;-74
2023/12/04 06:39:38;;;;;;;3.67;3.38;;;-2.50;99.90;;;;;;5030918;28;20056;-74
2023/12/04 06:42:08;;;;;;;2.70;2.47;;;-2.60;99.90;;;;;;5030026;28;20132;-74
2023/12/04 06:44:35;;;;;;;2.00;1.83;;;-2.60;99.90;;;;;;5031114;28;20057;-74
2023/12/04 06:47:01;;;;;;;1.90;1.55;;;-2.60;99.90;;;;;;5046172;28;20038;-74
2023/12/04 06:49:32;;;;;;;8.23;3.13;;;-2.60;99.90;;;;;;5045824;28;20156;-74
2023/12/04 06:51:59;;;;;;;3.33;3.03;;;-2.70;99.90;;;;;;5027320;28;20029;-74
2023/12/04 06:54:25;;;;;;;3.38;1.75;;;-2.70;99.90;;;;;;5014229;28;20037;-75
2023/12/04 06:56:51;;;;;;;6.45;3.40;;;-2.70;99.90;;;;;;5046259;28;20026;-74
2023/12/04 06:59:18;;;;;;;3.72;2.47;;;-2.70;99.90;;;;;;5030424;28;20151;-76
2023/12/04 07:01:44;;;;;;;6.15;3.75;;;-2.80;99.90;;;;;;5031137;28;20489;-75
2023/12/04 07:04:10;;;;;;;8.50;2.28;;;-2.70;99.90;;;;;;5031064;28;20025;-75
2023/12/04 07:06:37;;;;;;;2.75;2.55;;;-2.70;99.90;;;;;;5028911;28;20045;-74
2023/12/04 07:09:03;;;;;;;8.57;1.35;;;-2.70;99.90;;;;;;5030608;28;20480;-74
2023/12/04 07:11:29;;;;;;;2.53;1.70;;;-2.60;99.90;;;;;;5030394;28;20025;-74
2023/12/04 07:13:55;;;;;;;6.63;3.42;;;-2.60;99.90;;;;;;5028142;28;20057;-74
2023/12/04 07:16:21;;;;;;;3.88;3.05;;;-2.60;99.90;;;;;;5029634;28;20092;-73
2023/12/04 07:18:46;;;;;;;3.13;2.88;;;-2.60;99.90;;;;;;5028517;28;20112;-71
2023/12/04 07:21:12;;;;;;;4.22;2.58;;;-2.60;99.90;;;;;;5025855;28;20079;-74
2023/12/04 07:23:38;;;;;;;4.75;2.75;;;-2.50;99.90;;;;;;5036277;28;20025;-74
2023/12/04 07:26:06;;;;;;;1.40;1.30;;;-2.30;99.90;;;;;;5029192;28;20565;-73
2023/12/04 07:28:33;;;;;;;4.80;3.40;;;-2.40;99.90;;;;;;5028798;28;20091;-71
2023/12/04 07:30:58;;;;;;;2.47;2.28;;;-2.50;99.90;;;;;;5012665;28;20029;-73
2023/12/04 07:33:24;;;;;;;5.32;3.13;;;-2.40;99.90;;;;;;5025780;28;20025;-72
2023/12/04 07:35:51;;;;;;;3.03;2.30;;;-2.40;99.90;;;;;;5027277;28;20045;-71
2023/12/04 07:38:17;;;;;;;2.92;2.75;;;-2.30;99.90;;;;;;5021884;28;20467;-73
2023/12/04 07:40:44;;;;;;;2.33;2.13;;;-2.20;99.90;;;;;;5025454;28;20029;-73
2023/12/04 07:43:10;;;;;;;18.60;1.50;;;-2.10;99.90;;;;;;5026322;28;20029;-73
2023/12/04 07:45:36;;;;;;;5.18;2.90;;;-2.10;99.90;;;;;;5020643;28;20158;-72
2023/12/04 07:48:04;;;;;;;2.88;2.67;;;-2.10;99.90;;;;;;5027092;28;20112;-72
2023/12/04 07:50:29;;;;;;;2.92;2.60;;;-2.10;99.90;;;;;;5029969;28;20033;-72
2023/12/04 07:52:55;;;;;;;2.53;2.00;;;-2.10;99.90;;;;;;5030361;28;20523;-72
2023/12/04 07:55:21;;;;;;;2.78;2.42;;;-2.00;99.90;;;;;;5028084;28;20033;-73
2023/12/04 07:57:48;;;;;;;1.88;1.77;;;-2.20;99.90;;;;;;5046378;28;20022;-72
2023/12/04 08:00:14;;;;;;;3.03;2.30;;;-2.10;99.90;;;;;;5030572;28;20097;-72
2023/12/04 08:02:44;;;;;;;7.22;3.35;;;-2.00;99.90;;;;;;5029843;28;20040;-72
2023/12/04 08:05:10;;;;;;;2.53;2.33;;;-1.90;99.90;;;;;;5026576;28;20075;-73
2023/12/04 08:07:36;;;;;;;1.98;1.77;;;-1.90;99.90;;;;;;5029587;28;20498;-72
2023/12/04 08:10:02;;;;;;;10.02;3.28;;;-1.70;99.90;;;;;;5030304;28;20072;-72
2023/12/04 08:12:27;;;;;;;2.80;2.28;;;-1.70;99.90;;;;;;5029847;28;20049;-73
2023/12/04 08:14:53;;;;;;;3.75;3.45;;;-1.70;99.90;;;;;;5013465;28;20105;-72
2023/12/04 08:17:19;;;;;;;5.05;4.57;;;-1.60;99.90;;;;;;5027344;28;20116;-73
2023/12/04 08:19:45;;;;;;;2.92;2.60;;;-1.60;99.90;;;;;;5021129;28;20104;-72
2023/12/04 08:22:10;;;;;;;1.23;1.20;;;-1.70;99.90;;;;;;5015783;28;20037;-72
2023/12/04 08:24:36;;;;;;;4.47;2.88;;;-1.70;99.90;;;;;;5028158;28;20108;-73
2023/12/04 08:27:02;;;;;;;5.85;1.95;;;-1.60;99.90;;;;;;5029634;28;20033;-73
2023/12/04 08:29:27;;;;;;;2.50;2.30;;;-1.50;99.90;;;;;;5027744;28;20041;-72
2023/12/04 08:31:53;;;;;;;3.33;3.08;;;-1.50;99.90;;;;;;5023611;28;20040;-72
2023/12/04 08:34:19;;;;;;;1.85;1.75;;;-1.40;99.90;;;;;;5023156;28;20033;-72
2023/12/04 08:36:45;;;;;;;1.60;1.50;;;-1.30;99.90;;;;;;5023660;28;20561;-73
2023/12/04 08:39:10;;;;;;;6.13;3.70;;;-1.20;99.90;;;;;;5028751;28;20040;-73
2023/12/04 08:41:36;;;;;;;5.57;3.15;;;-1.20;99.90;;;;;;5030121;28;20068;-73
2023/12/04 08:44:02;;;;;;;14.23;3.58;;;-1.00;99.90;;;;;;5030306;28;20096;-73
2023/12/04 08:46:27;;;;;;;4.22;3.40;;;-0.90;99.90;;;;;;5029984;28;20037;-73
2023/12/04 08:48:53;;;;;;;2.55;1.98;;;-1.00;99.90;;;;;;5036810;28;20037;-72
2023/12/04 08:51:19;;;;;;;4.80;2.58;;;-0.90;99.90;;;;;;5026664;28;20033;-73
2023/12/04 08:53:45;;;;;;;3.22;3.03;;;-1.00;99.90;;;;;;5030278;28;20064;-72
2023/12/04 08:56:11;;;;;;;3.85;3.55;;;-1.00;99.90;;;;;;5021230;28;20033;-73
2023/12/04 08:58:37;;;;;;;12.02;2.53;;;-1.00;99.90;;;;;;5026802;28;20026;-73
2023/12/04 09:01:03;;;;;;;3.08;2.53;;;-0.90;99.90;;;;;;5027894;28;20762;-73
2023/12/04 09:03:31;;;;;;;2.15;1.55;;;-0.90;99.90;;;;;;5024040;28;20025;-73
2023/12/04 09:05:57;;;;;;;5.70;3.95;;;-0.90;99.90;;;;;;5028323;28;20110;-73
2023/12/04 09:08:26;;;;;;;6.95;4.88;;;-0.60;99.90;;;;;;5027164;28;20029;-73
2023/12/04 09:10:52;;;;;;;2.40;2.22;;;-0.50;99.90;;;;;;5027319;28;20033;-73
2023/12/04 09:13:17;;;;;;;4.63;3.38;;;-0.40;99.90;;;;;;5030449;28;20037;-73
2023/12/04 09:15:43;;;;;;;2.20;2.00;;;-0.50;99.90;;;;;;5022568;28;20056;-73
2023/12/04 09:18:09;;;;;;;3.45;3.10;;;-0.40;99.90;;;;;;5020586;28;20367;-73
2023/12/04 09:20:36;;;;;;;4.95;2.13;;;-0.40;99.90;;;;;;5027667;28;20081;-73
2023/12/04 09:23:02;;;;;;;1.67;1.58;;;-0.30;99.90;;;;;;5021187;28;20040;-73
2023/12/04 09:25:27;;;;;;;13.60;3.28;;;-0.30;99.90;;;;;;5029225;28;20029;-73
2023/12/04 09:27:53;;;;;;;3.92;1.60;;;-0.30;99.90;;;;;;5026812;28;20029;-73
2023/12/04 09:30:19;;;;;;;9.07;2.63;;;-0.30;99.90;;;;;;5028503;28;20454;-73
2023/12/04 09:32:45;;;;;;;3.28;2.95;;;-0.20;99.90;;;;;;5015253;28;20034;-73
2023/12/04 09:35:11;;;;;;;3.35;1.92;;;-0.20;99.90;;;;;;5040384;28;20108;-73
2023/12/04 09:37:36;;;;;;;7.38;4.18;;;-0.10;99.90;;;;;;5026935;28;20041;-73
2023/12/04 09:40:03;;;;;;;2.38;2.05;;;0.00;99.90;;;;;;5028897;28;20080;-73
2023/12/04 09:42:31;;;;;;;2.13;1.88;;;0.10;99.90;;;;;;5020335;28;20025;-72
2023/12/04 09:44:58;;;;;;;3.53;2.15;;;0.00;99.90;;;;;;5028121;28;20115;-72
2023/12/04 09:47:26;;;;;;;1.25;1.23;;;-0.20;99.90;;;;;;5026430;28;20033;-72
2023/12/04 09:49:55;;;;;;;3.72;2.03;;;-0.10;99.90;;;;;;5010365;28;20033;-74
2023/12/04 09:52:21;;;;;;;3.72;3.40;;;0.00;99.90;;;;;;5021285;28;20030;-73
2023/12/04 09:54:47;;;;;;;4.50;3.15;;;0.10;99.90;;;;;;5027908;28;20048;-72
2023/12/04 09:57:13;;;;;;;1.33;1.15;;;0.10;99.90;;;;;;5028433;28;20040;-72
2023/12/04 09:59:40;;;;;;;7.78;4.85;;;0.10;99.90;;;;;;5026981;28;20508;-73
2023/12/04 10:02:08;;;;;;;2.15;1.92;;;0.20;99.90;;;;;;5027335;28;20045;-72
2023/12/04 10:04:35;;;;;;;3.92;3.30;;;0.30;99.90;;;;;;5018774;28;20041;-73
2023/12/04 10:07:02;;;;;;;1.58;1.38;;;0.40;99.90;;;;;;5025919;28;20041;-72
2023/12/04 10:09:28;;;;;;;3.17;2.67;;;0.40;99.90;;;;;;5028457;28;20029;-72
2023/12/04 10:11:56;;;;;;;4.55;2.13;;;0.60;99.90;;;;;;5020646;28;20034;-73
2023/12/04 10:14:22;;;;;;;4.00;1.35;;;0.70;99.90;;;;;;5027363;28;20033;-73
2023/12/04 10:16:49;;;;;;;7.60;2.92;;;0.50;99.90;;;;;;5030244;28;20084;-73
2023/12/04 10:19:26;;;;;;;4.72;2.80;;;0.60;99.90;;;;;;5026018;28;20033;-74
2023/12/04 10:21:54;;;;;;;2.83;2.28;;;0.60;99.90;;;;;;5014550;28;20075;-73
2023/12/04 10:24:35;;;;;;;2.95;1.80;;;0.60;99.90;;;;;;5029169;28;20040;-73
2023/12/04 10:27:04;;;;;;;;;;;0.70;99.90;;;;;;5011523;28;20113;-72
2023/12/04 10:29:45;;;;;;;4.22;2.55;;;0.50;99.90;;;;;;5028345;28;19909;-72
2023/12/04 10:32:11;;;;;;;5.50;1.92;;;0.40;99.90;;;;;;5025083;28;20757;-73
2023/12/04 10:34:38;;;;;;;13.70;2.70;;;0.40;99.90;;;;;;5029883;28;20371;-72
2023/12/04 10:37:05;;;;;;;3.17;2.35;;;0.30;99.90;;;;;;5016392;28;20124;-72
2023/12/04 10:39:45;;;;;;;22.80;2.90;;;0.40;99.90;;;;;;5026485;28;20021;-72
2023/12/04 10:42:10;;;;;;;3.08;2.40;;;0.30;99.90;;;;;;5022763;28;20389;-72
2023/12/04 10:44:40;;;;;;;3.47;2.67;;;0.30;99.90;;;;;;5027704;28;20038;-73
2023/12/04 10:47:07;;;;;;;3.17;2.60;;;0.40;99.90;;;;;;5022625;28;20037;-72
2023/12/04 10:49:34;;;;;;;2.17;1.58;;;0.40;99.90;;;;;;5039802;28;20065;-73
2023/12/04 10:52:01;;;;;;;1.33;1.05;;;0.40;99.90;;;;;;5040161;28;20036;-74
2023/12/04 10:54:27;;;;;;;4.15;3.00;;;0.40;99.90;;;;;;5015807;28;20030;-76
2023/12/04 10:57:02;;;;;;;3.53;3.00;;;0.40;99.90;;;;;;5027686;28;20025;-72
2023/12/04 10:59:35;;;;;;;1.75;1.38;;;0.50;99.90;;;;;;5028016;28;20026;-74
2023/12/04 11:02:04;;;;;;;2.45;2.20;;;0.50;99.90;;;;;;5024362;28;20029;-73
2023/12/04 11:04:32;;;;;;;3.03;1.67;;;0.60;99.90;;;;;;5030149;28;20021;-73
2023/12/04 11:07:02;;;;;;;6.13;3.55;;;0.50;99.90;;;;;;5027081;28;20053;-73
2023/12/04 11:09:29;;;;;;;1.67;1.58;;;0.60;99.90;;;;;;5032216;28;20037;-73
2023/12/04 11:12:02;;;;;;;2.15;1.95;;;0.60;99.90;;;;;;5026650;28;20476;-73
2023/12/04 11:14:37;;;;;;;3.35;1.85;;;0.50;99.90;;;;;;5033002;28;20021;-75
2023/12/04 11:17:11;;;;;;;2.10;1.42;;;0.30;99.90;;;;;;5012005;28;20025;-73
2023/12/04 11:20:13;;;;;;;2.58;2.33;;;0.20;99.90;;;;;;5025821;28;20039;-73
2023/12/04 11:22:40;;;;;;;6.85;2.63;;;0.20;99.90;;;;;;5021127;28;20134;-74
2023/12/04 11:25:07;;;;;;;2.08;1.23;;;0.10;99.90;;;;;;5028329;28;20144;-74
2023/12/04 11:27:35;;;;;;;10.38;4.00;;;0.10;99.90;;;;;;5008105;28;20055;-74
2023/12/04 11:30:03;;;;;;;10.15;3.08;;;0.00;99.90;;;;;;5000134;28;20474;-74
2023/12/04 11:32:29;;;;;;;4.32;2.15;;;0.20;99.90;;;;;;5030507;28;20026;-73
2023/12/04 11:34:59;;;;;;;1.58;1.30;;;0.00;99.90;;;;;;5024721;28;20033;-73
2023/12/04 11:37:25;;;;;;;2.85;1.85;;;0.20;99.90;;;;;;5029636;28;20087;-73
2023/12/04 11:39:52;;;;;;;2.50;1.85;;;0.00;99.90;;;;;;5046286;28;20022;-72
2023/12/04 11:42:25;;;;;;;3.67;2.40;;;-0.20;99.90;;;;;;5026937;28;20034;-73
2023/12/04 11:45:00;;;;;;;1.45;1.35;;;-0.20;99.90;;;;;;5029819;28;20056;-71
2023/12/04 11:47:28;;;;;;;2.35;2.10;;;-0.10;99.90;;;;;;5026500;28;20029;-71
2023/12/04 11:49:54;;;;;;;2.58;1.98;;;-0.10;99.90;;;;;;5031792;28;20039;-71
2023/12/04 11:52:34;;;;;;;7.07;3.10;;;-0.10;99.90;;;;;;5031357;28;20041;-73
2023/12/04 11:55:06;;;;;;;5.90;3.38;;;0.00;99.90;;;;;;5028366;28;20037;-74
2023/12/04 11:57:39;;;;;;;3.97;2.63;;;0.20;99.90;;;;;;5029184;28;20021;-71
2023/12/04 12:00:21;;;;;;;7.90;3.30;;;-0.10;99.90;;;;;;5029750;28;20367;-72
2023/12/04 12:03:05;;;;;;;5.90;3.97;;;0.00;99.90;;;;;;5026357;28;20420;-72
2023/12/04 12:05:33;;;;;;;5.40;2.35;;;0.00;99.90;;;;;;5030452;28;20083;-72
2023/12/04 12:08:03;;;;;;;2.22;1.73;;;0.00;99.90;;;;;;5026074;28;20128;-72
2023/12/04 12:10:29;;;;;;;3.28;3.05;;;0.10;99.90;;;;;;5024759;28;20036;-72
2023/12/04 12:12:56;;;;;;;5.00;3.03;;;0.20;99.90;;;;;;5013569;28;20037;-73
2023/12/04 12:15:22;;;;;;;0.90;0.82;;;0.10;99.90;;;;;;5031170;28;20014;-73
2023/12/04 12:17:50;;;;;;;2.55;2.33;;;0.00;99.90;;;;;;5023748;28;20395;-72
2023/12/04 12:20:16;;;;;;;3.15;2.90;;;-0.10;99.90;;;;;;5027675;28;20449;-72
2023/12/04 12:22:43;;;;;;;2.38;2.10;;;-0.10;99.90;;;;;;5040708;28;20017;-73
2023/12/04 12:25:11;;;;;;;3.42;2.63;;;0.00;99.90;;;;;;5039932;28;20028;-72
2023/12/04 12:27:38;;;;;;;2.05;1.77;;;0.00;99.90;;;;;;5026043;28;20029;-71
2023/12/04 12:30:04;;;;;;;4.15;2.70;;;0.00;99.90;;;;;;5030464;28;20111;-72
2023/12/04 12:32:34;;;;;;;2.17;1.90;;;0.10;99.90;;;;;;5029654;28;20045;-73
2023/12/04 12:35:00;;;;;;;3.10;2.83;;;0.20;99.90;;;;;;5026228;28;20120;-72
2023/12/04 12:37:26;;;;;;;4.88;3.40;;;0.30;99.90;;;;;;5029851;28;20121;-72
2023/12/04 12:39:52;;;;;;;5.03;3.63;;;0.40;99.90;;;;;;5029622;28;20025;-72
2023/12/04 12:42:41;;;;;;;2.72;2.35;;;0.10;99.90;;;;;;5025745;28;20068;-73
2023/12/04 12:45:10;;;;;;;7.85;3.88;;;0.00;99.90;;;;;;5025400;28;20026;-73
2023/12/04 12:47:35;;;;;;;4.72;4.32;;;0.00;99.90;;;;;;5029858;28;20041;-72